Time;durP1;ratioP1;P1;durP2;ratioP2;P2;SDS_P1;SDS_P2;PMS_P1;PMS_P2;Temp;Humidity;BMP_temperature;BMP_pressure;BME280_temperature;BME280_humidity;BME280_pressure;Samples;Min_cycle;Max_cycle;Signal;HPM_P1;HPM_P2
2021/08/19 00:00:10;;;;;;;;;;;19.00;92.80;19.10;99717.00;;;;340485;28;83579;-92
2021/08/19 00:00:22;;;;;;;;;;;19.00;92.80;19.10;99719.00;;;;340038;28;91635;-92
2021/08/19 00:00:35;;;;;;;;;;;19.00;92.80;19.10;99717.00;;;;341834;28;83438;-93
2021/08/19 00:00:47;;;;;;;;;;;19.00;92.80;19.10;99718.00;;;;341435;28;89534;-92
2021/08/19 00:00:58;;;;;;;;;;;19.00;92.80;19.10;99714.00;;;;342157;28;82386;-92
2021/08/19 00:01:10;;;;;;;;;;;19.00;92.70;19.20;99709.00;;;;340204;28;91642;-92
2021/08/19 00:01:23;;;;;;;;;;;19.00;92.80;19.20;99713.00;;;;341804;28;83477;-92
2021/08/19 00:01:35;;;;;;;;;;;19.00;92.90;19.10;99717.00;;;;341388;28;93098;-93
2021/08/19 00:01:48;;;;;;;;;;;19.00;92.90;19.10;99719.00;;;;343242;28;83330;-93
2021/08/19 00:02:00;;;;;;;;;;;19.00;92.90;19.20;99716.00;;;;341437;28;91798;-93
2021/08/19 00:02:12;;;;;;;;;;;19.00;92.90;19.20;99713.00;;;;341914;28;83545;-93
2021/08/19 00:02:24;;;;;;;;;;;19.00;92.90;19.20;99709.00;;;;340161;28;90330;-92
2021/08/19 00:02:36;;;;;;;;;;;19.00;92.90;19.20;99716.00;;;;341854;28;83441;-93
2021/08/19 00:02:48;;;;;;;;;;;19.00;92.80;19.20;99714.00;;;;342820;28;92050;-93
2021/08/19 00:03:02;;;;;;;;;;;19.00;92.80;19.20;99713.00;;;;342010;28;83312;-92
2021/08/19 00:03:14;;;;;;;;;;;19.00;92.80;19.20;99708.00;;;;341029;28;91878;-92
2021/08/19 00:03:27;;;;;;;;;;;19.00;92.80;19.20;99721.00;;;;343063;28;82642;-94
2021/08/19 00:03:39;;;;;;;;;;;19.00;92.80;19.20;99716.00;;;;341981;28;92587;-93
2021/08/19 00:03:51;;;;;;;;;;;19.00;92.80;19.20;99714.00;;;;343877;28;82591;-93
2021/08/19 00:04:02;;;;;;;;;;;19.00;92.70;19.20;99713.00;;;;341589;28;88138;-93
2021/08/19 00:04:15;;;;;;;;;;;19.00;92.70;19.30;99707.00;;;;339953;28;83451;-93
2021/08/19 00:04:27;;;;;;;;;;;19.00;92.60;19.30;99719.00;;;;339661;28;92081;-92
2021/08/19 00:04:40;;;;;;;;;;;19.00;92.60;19.20;99714.00;;;;340995;28;83523;-92
2021/08/19 00:04:52;;;;;;;;;;;19.10;92.60;19.30;99713.00;;;;339367;28;89962;-93
2021/08/19 00:05:04;;;;;;;;;;;19.00;92.60;19.30;99716.00;;;;342560;28;83387;-93
2021/08/19 00:05:16;;;;;;;;;;;19.10;92.60;19.20;99715.00;;;;339419;28;90107;-93
2021/08/19 00:05:28;;;;;;;;;;;19.10;92.60;19.30;99715.00;;;;343827;28;82472;-93
2021/08/19 00:05:40;;;;;;;;;;;19.10;92.60;19.30;99713.00;;;;343369;28;92155;-93
2021/08/19 00:05:52;;;;;;;;;;;19.10;92.60;19.30;99714.00;;;;342750;28;83378;-93
2021/08/19 00:06:05;;;;;;;;;;;19.10;92.60;19.30;99708.00;;;;342023;28;93233;-93
2021/08/19 00:06:17;;;;;;;;;;;19.10;92.60;19.30;99715.00;;;;341219;28;83455;-93
2021/08/19 00:06:29;;;;;;;;;;;19.10;92.50;19.30;99715.00;;;;342402;28;92399;-93
2021/08/19 00:06:40;;;;;;;;;;;19.10;92.40;19.30;99717.00;;;;343896;28;83458;-93
2021/08/19 00:06:52;;;;;;;;;;;19.10;92.50;19.30;99712.00;;;;343269;28;88812;-92
2021/08/19 00:07:04;;;;;;;;;;;19.10;92.40;19.20;99722.00;;;;342358;28;83298;-93
2021/08/19 00:07:16;;;;;;;;;;;19.10;92.40;19.20;99711.00;;;;339448;28;90470;-93
2021/08/19 00:07:28;;;;;;;;;;;19.10;92.40;19.20;99714.00;;;;342357;28;83405;-93
2021/08/19 00:07:41;;;;;;;;;;;19.10;92.40;19.20;99712.00;;;;343186;28;93333;-93
2021/08/19 00:07:53;;;;;;;;;;;19.10;92.30;19.20;99715.00;;;;343245;28;82571;-93
2021/08/19 00:08:05;;;;;;;;;;;19.10;92.40;19.20;99706.00;;;;341254;28;91026;-93
2021/08/19 00:08:17;;;;;;;;;;;19.10;92.40;19.30;99718.00;;;;339656;28;83399;-93
2021/08/19 00:08:28;;;;;;;;;;;19.10;92.50;19.30;99705.00;;;;340483;28;91997;-93
2021/08/19 00:08:42;;;;;;;;;;;19.10;92.50;19.30;99718.00;;;;342198;28;83511;-93
2021/08/19 00:08:54;;;;;;;;;;;19.10;92.40;19.30;99707.00;;;;340598;28;90588;-94
2021/08/19 00:09:06;;;;;;;;;;;19.10;92.40;19.30;99711.00;;;;342334;28;83481;-93
2021/08/19 00:09:19;;;;;;;;;;;19.10;92.40;19.30;99713.00;;;;340480;28;90460;-93
2021/08/19 00:09:34;;;;;;;;;;;19.10;92.40;19.30;99710.00;;;;340851;28;83494;-93
2021/08/19 00:09:46;;;;;;;;;;;19.10;92.40;19.30;99709.00;;;;340399;28;91682;-93
2021/08/19 00:09:58;;;;;;;;;;;19.10;92.40;19.30;99715.00;;;;343644;28;83434;-93
2021/08/19 00:10:10;;;;;;;;;;;19.10;92.40;19.30;99712.00;;;;343171;28;90033;-93
2021/08/19 00:10:23;;;;;;;;;;;19.10;92.40;19.40;99708.00;;;;341006;28;83501;-93
2021/08/19 00:10:34;;;;;;;;;;;19.10;92.40;19.40;99712.00;;;;341918;28;91963;-93
2021/08/19 00:10:47;;;;;;;;;;;19.10;92.40;19.40;99708.00;;;;341044;28;82530;-93
2021/08/19 00:10:59;;;;;;;;;;;19.10;92.40;19.30;99712.00;;;;341604;28;91279;-91
2021/08/19 00:11:11;;;;;;;;;;;19.10;92.30;19.30;99719.00;;;;339543;28;84822;-93
2021/08/19 00:11:23;;;;;;;;;;;19.10;92.40;19.30;99713.00;;;;340405;28;90950;-93
2021/08/19 00:11:35;;;;;;;;;;;19.10;92.40;19.30;99705.00;;;;339830;28;82598;-93
2021/08/19 00:11:47;;;;;;;;;;;19.20;92.40;19.30;99708.00;;;;340259;28;91775;-93
2021/08/19 00:11:59;;;;;;;;;;;19.20;92.30;19.20;99715.00;;;;339424;28;83522;-93
2021/08/19 00:12:12;;;;;;;;;;;19.10;92.30;19.30;99712.00;;;;340556;28;91472;-93
2021/08/19 00:12:24;;;;;;;;;;;19.10;92.30;19.40;99715.00;;;;340977;28;82634;-93
2021/08/19 00:12:37;;;;;;;;;;;19.10;92.30;19.30;99720.00;;;;341728;28;90439;-93
2021/08/19 00:12:48;;;;;;;;;;;19.10;92.40;19.40;99711.00;;;;343223;28;83633;-93
2021/08/19 00:13:01;;;;;;;;;;;19.20;92.40;19.40;99717.00;;;;340360;28;91729;-93
2021/08/19 00:13:13;;;;;;;;;;;19.10;92.30;19.30;99717.00;;;;340897;28;83506;-93
2021/08/19 00:13:25;;;;;;;;;;;19.20;92.30;19.20;99716.00;;;;339171;28;91410;-93
2021/08/19 00:13:37;;;;;;;;;;;19.20;92.30;19.20;99709.00;;;;340677;28;84059;-93
2021/08/19 00:13:49;;;;;;;;;;;19.20;92.30;19.20;99715.00;;;;340430;28;91940;-93
2021/08/19 00:14:01;;;;;;;;;;;19.10;92.30;19.10;99717.00;;;;339322;28;82598;-93
2021/08/19 00:14:13;;;;;;;;;;;19.10;92.30;19.20;99714.00;;;;340314;28;89799;-93
2021/08/19 00:14:25;;;;;;;;;;;19.10;92.30;19.20;99711.00;;;;338202;28;82533;-93
2021/08/19 00:14:37;;;;;;;;;;;19.10;92.20;19.10;99723.00;;;;340279;28;91794;-92
2021/08/19 00:14:48;;;;;;;;;;;19.10;92.20;19.20;99716.00;;;;340724;28;83495;-93
2021/08/19 00:15:00;;;;;;;;;;;19.10;92.50;19.20;99722.00;;;;339129;28;91778;-93
2021/08/19 00:15:12;;;;;;;;;;;19.10;92.30;19.30;99716.00;;;;339376;28;82592;-92
2021/08/19 00:15:25;;;;;;;;;;;19.10;92.40;19.20;99716.00;;;;339033;28;90819;-93
2021/08/19 00:15:36;;;;;;;;;;;19.10;92.40;19.30;99713.00;;;;341097;28;82611;-93
2021/08/19 00:15:50;;;;;;;;;;;19.10;92.40;19.20;99717.00;;;;341670;28;91308;-93
2021/08/19 00:16:02;;;;;;;;;;;19.10;92.30;19.20;99713.00;;;;343541;28;82663;-93
2021/08/19 00:16:14;;;;;;;;;;;19.10;92.20;19.20;99715.00;;;;339017;28;91874;-93
2021/08/19 00:16:26;;;;;;;;;;;19.10;92.20;19.20;99720.00;;;;340804;28;82494;-94
2021/08/19 00:16:38;;;;;;;;;;;19.10;92.20;19.30;99711.00;;;;340268;28;90135;-92
2021/08/19 00:16:50;;;;;;;;;;;19.10;92.20;19.20;99714.00;;;;342139;28;83470;-93
2021/08/19 00:17:03;;;;;;;;;;;19.10;92.30;19.20;99721.00;;;;342783;28;90220;-93
2021/08/19 00:17:15;;;;;;;;;;;19.10;92.30;19.30;99709.00;;;;342006;28;83446;-93
2021/08/19 00:17:27;;;;;;;;;;;19.10;92.30;19.30;99713.00;;;;340098;28;90830;-93
2021/08/19 00:17:39;;;;;;;;;;;19.10;92.30;19.30;99713.00;;;;340552;28;83442;-92
2021/08/19 00:17:51;;;;;;;;;;;19.10;92.30;19.30;99710.00;;;;341368;28;91779;-91
2021/08/19 00:18:03;;;;;;;;;;;19.10;92.30;19.30;99720.00;;;;340746;28;82498;-93
2021/08/19 00:18:14;;;;;;;;;;;19.10;92.30;19.20;99716.00;;;;341424;28;90798;-92
2021/08/19 00:18:26;;;;;;;;;;;19.10;92.30;19.30;99711.00;;;;340809;28;83500;-92
2021/08/19 00:18:38;;;;;;;;;;;19.10;92.30;19.20;99711.00;;;;342975;28;91536;-93
2021/08/19 00:18:50;;;;;;;;;;;19.10;92.30;19.20;99715.00;;;;343319;28;83463;-92
2021/08/19 00:19:02;;;;;;;;;;;19.10;92.20;19.30;99712.00;;;;341645;28;91757;-92
2021/08/19 00:19:14;;;;;;;;;;;19.10;92.20;19.30;99711.00;;;;343339;28;83419;-93
2021/08/19 00:19:26;;;;;;;;;;;19.10;92.20;19.30;99711.00;;;;338904;28;91900;-93
2021/08/19 00:19:38;;;;;;;;;;;19.10;92.20;19.30;99719.00;;;;341952;28;83451;-92
2021/08/19 00:19:49;;;;;;;;;;;19.10;92.20;19.30;99711.00;;;;341503;28;92149;-93
2021/08/19 00:20:02;;;;;;;;;;;19.10;92.20;19.30;99714.00;;;;343096;28;83665;-92
2021/08/19 00:20:14;;;;;;;;;;;19.10;92.20;19.30;99720.00;;;;340282;28;91998;-93
2021/08/19 00:20:26;;;;;;;;;;;19.10;92.30;19.30;99714.00;;;;342793;28;82486;-92
2021/08/19 00:20:38;;;;;;;;;;;19.10;92.30;19.30;99708.00;;;;341824;28;90794;-92
2021/08/19 00:20:50;;;;;;;;;;;19.10;92.20;19.30;99704.00;;;;342307;28;82626;-92
2021/08/19 00:21:02;;;;;;;;;;;19.10;92.20;19.30;99712.00;;;;341687;28;89960;-93
2021/08/19 00:21:14;;;;;;;;;;;19.10;92.20;19.30;99712.00;;;;340867;28;82416;-92
2021/08/19 00:21:26;;;;;;;;;;;19.10;92.20;19.30;99713.00;;;;340285;28;91923;-93
2021/08/19 00:21:38;;;;;;;;;;;19.10;92.20;19.30;99709.00;;;;342495;28;85168;-92
2021/08/19 00:21:50;;;;;;;;;;;19.10;92.20;19.30;99720.00;;;;342922;28;91728;-92
2021/08/19 00:22:02;;;;;;;;;;;19.10;92.10;19.20;99715.00;;;;342202;28;83535;-93
2021/08/19 00:22:14;;;;;;;;;;;19.10;92.20;19.30;99712.00;;;;340607;28;91042;-93
2021/08/19 00:22:26;;;;;;;;;;;19.10;92.20;19.20;99710.00;;;;339289;28;83341;-93
2021/08/19 00:22:38;;;;;;;;;;;19.10;92.30;19.30;99709.00;;;;339957;28;91107;-92
2021/08/19 00:22:50;;;;;;;;;;;19.10;92.20;19.20;99715.00;;;;340722;28;83455;-93
2021/08/19 00:23:02;;;;;;;;;;;19.10;92.20;19.20;99707.00;;;;339086;28;90434;-93
2021/08/19 00:23:14;;;;;;;;;;;19.10;92.20;19.30;99712.00;;;;339562;28;82431;-93
2021/08/19 00:23:26;;;;;;;;;;;19.20;92.20;19.30;99712.00;;;;339001;28;91693;-93
2021/08/19 00:23:38;;;;;;;;;;;19.10;92.20;19.20;99708.00;;;;340948;28;82501;-93
2021/08/19 00:23:50;;;;;;;;;;;19.10;92.20;19.20;99705.00;;;;340709;28;92016;-92
2021/08/19 00:24:02;;;;;;;;;;;19.10;92.30;19.20;99711.00;;;;340765;28;83488;-92
2021/08/19 00:24:14;;;;;;;;;;;19.10;92.20;19.20;99705.00;;;;340369;28;91987;-93
2021/08/19 00:24:25;;;;;;;;;;;19.10;92.20;19.20;99708.00;;;;340762;28;82567;-92
2021/08/19 00:24:37;;;;;;;;;;;19.10;92.20;19.10;99710.00;;;;339030;28;90460;-92
2021/08/19 00:24:49;;;;;;;;;;;19.10;92.20;19.00;99711.00;;;;340711;28;82628;-92
2021/08/19 00:25:01;;;;;;;;;;;19.10;92.20;19.10;99720.00;;;;339117;28;91443;-92
2021/08/19 00:25:13;;;;;;;;;;;19.10;92.20;19.20;99712.00;;;;343476;28;83337;-92
2021/08/19 00:25:25;;;;;;;;;;;19.10;92.30;19.10;99707.00;;;;341595;28;91654;-93
2021/08/19 00:25:37;;;;;;;;;;;19.10;92.30;19.20;99704.00;;;;340840;28;82488;-92
2021/08/19 00:25:49;;;;;;;;;;;19.10;92.30;19.10;99709.00;;;;341706;28;91224;-92
2021/08/19 00:26:02;;;;;;;;;;;19.10;92.30;19.10;99711.00;;;;344852;28;83507;-92
2021/08/19 00:26:14;;;;;;;;;;;19.10;92.40;19.20;99711.00;;;;340337;28;89810;-93
2021/08/19 00:26:26;;;;;;;;;;;19.10;92.40;19.20;99713.00;;;;342097;28;83418;-92
2021/08/19 00:26:38;;;;;;;;;;;19.10;92.40;19.20;99708.00;;;;343024;28;90207;-93
2021/08/19 00:26:50;;;;;;;;;;;19.10;92.40;19.20;99715.00;;;;346204;28;83478;-92
2021/08/19 00:27:02;;;;;;;;;;;19.10;92.40;19.20;99716.00;;;;342956;28;91067;-92
2021/08/19 00:27:14;;;;;;;;;;;19.10;92.40;19.20;99706.00;;;;341803;28;83459;-92
2021/08/19 00:27:26;;;;;;;;;;;19.10;92.40;19.30;99709.00;;;;344268;28;91664;-93
2021/08/19 00:27:38;;;;;;;;;;;19.10;92.40;19.30;99709.00;;;;341352;28;83586;-92
2021/08/19 00:27:50;;;;;;;;;;;19.10;92.40;19.30;99705.00;;;;341616;28;92662;-92
2021/08/19 00:28:02;;;;;;;;;;;19.10;92.40;19.20;99713.00;;;;343871;28;83544;-93
2021/08/19 00:28:14;;;;;;;;;;;19.10;92.40;19.30;99713.00;;;;339003;28;90929;-92
2021/08/19 00:28:25;;;;;;;;;;;19.10;92.40;19.20;99711.00;;;;340608;28;83404;-92
2021/08/19 00:28:37;;;;;;;;;;;19.10;92.40;19.20;99705.00;;;;342936;28;91662;-93
2021/08/19 00:28:49;;;;;;;;;;;19.10;92.40;19.20;99701.00;;;;340649;28;82590;-93
2021/08/19 00:29:01;;;;;;;;;;;19.10;92.40;19.20;99707.00;;;;341635;28;91494;-93
2021/08/19 00:29:13;;;;;;;;;;;19.10;92.40;19.20;99711.00;;;;340594;28;82668;-93
2021/08/19 00:29:25;;;;;;;;;;;19.10;92.40;19.20;99713.00;;;;340226;28;91857;-92
2021/08/19 00:29:37;;;;;;;;;;;19.10;92.30;19.20;99709.00;;;;340694;28;83560;-93
2021/08/19 00:29:49;;;;;;;;;;;19.10;92.40;19.20;99711.00;;;;340306;28;91862;-93
2021/08/19 00:30:01;;;;;;;;;;;19.10;92.40;19.20;99703.00;;;;343398;28;82538;-93
2021/08/19 00:30:13;;;;;;;;;;;19.10;92.40;19.10;99709.00;;;;343932;28;89805;-93
2021/08/19 00:30:24;;;;;;;;;;;19.10;92.40;19.10;99708.00;;;;342079;28;83433;-93
2021/08/19 00:30:37;;;;;;;;;;;19.10;92.40;19.10;99699.00;;;;340395;28;90300;-92
2021/08/19 00:30:49;;;;;;;;;;;19.00;92.40;19.20;99715.00;;;;341973;28;82588;-93
2021/08/19 00:31:01;;;;;;;;;;;19.00;92.40;19.20;99711.00;;;;341692;28;91700;-92
2021/08/19 00:31:13;;;;;;;;;;;19.10;92.40;19.20;99697.00;;;;340719;28;83441;-93
2021/08/19 00:31:25;;;;;;;;;;;19.10;92.40;19.20;99705.00;;;;342996;28;91319;-92
2021/08/19 00:31:37;;;;;;;;;;;19.10;92.40;19.20;99699.00;;;;340702;28;83540;-92
2021/08/19 00:31:49;;;;;;;;;;;19.10;92.40;19.20;99704.00;;;;341621;28;91831;-92
2021/08/19 00:32:03;;;;;;;;;;;19.10;92.40;19.30;99708.00;;;;343389;28;83401;-93
2021/08/19 00:32:15;;;;;;;;;;;19.10;92.40;19.30;99701.00;;;;339068;28;91465;-93
2021/08/19 00:32:28;;;;;;;;;;;19.10;92.40;19.30;99705.00;;;;341967;28;83438;-93
2021/08/19 00:32:40;;;;;;;;;;;19.10;92.40;19.20;99712.00;;;;341618;28;91808;-93
2021/08/19 00:32:52;;;;;;;;;;;19.10;92.40;19.20;99708.00;;;;342064;28;83335;-93
2021/08/19 00:33:04;;;;;;;;;;;19.10;92.40;19.20;99707.00;;;;340289;28;91634;-93
2021/08/19 00:33:16;;;;;;;;;;;19.10;92.40;19.20;99708.00;;;;342088;28;83446;-93
2021/08/19 00:33:28;;;;;;;;;;;19.10;92.40;19.10;99708.00;;;;338927;28;91937;-92
2021/08/19 00:33:42;;;;;;;;;;;19.10;92.40;19.10;99707.00;;;;342058;28;82554;-93
2021/08/19 00:33:54;;;;;;;;;;;19.10;92.30;19.20;99714.00;;;;341559;28;90888;-93
2021/08/19 00:34:05;;;;;;;;;;;19.10;92.40;19.20;99712.00;;;;344735;28;82729;-93
2021/08/19 00:34:17;;;;;;;;;;;19.10;92.40;19.20;99707.00;;;;341695;28;92102;-92
2021/08/19 00:34:30;;;;;;;;;;;19.10;92.40;19.20;99708.00;;;;342041;28;83359;-93
2021/08/19 00:34:42;;;;;;;;;;;19.10;92.40;19.20;99708.00;;;;341664;28;91234;-93
2021/08/19 00:34:54;;;;;;;;;;;19.10;92.40;19.20;99711.00;;;;341018;28;83552;-93
2021/08/19 00:35:06;;;;;;;;;;;19.10;92.40;19.20;99711.00;;;;343053;28;91556;-93
2021/08/19 00:35:18;;;;;;;;;;;19.10;92.40;19.20;99710.00;;;;342278;28;82499;-91
2021/08/19 00:35:30;;;;;;;;;;;19.10;92.40;19.20;99711.00;;;;340279;28;90842;-93
2021/08/19 00:35:42;;;;;;;;;;;19.10;92.70;19.10;99711.00;;;;339431;28;82512;-93
2021/08/19 00:35:54;;;;;;;;;;;19.10;92.40;19.20;99709.00;;;;340228;28;92184;-92
2021/08/19 00:36:06;;;;;;;;;;;19.10;92.40;19.20;99707.00;;;;340700;28;85112;-92
2021/08/19 00:36:18;;;;;;;;;;;19.10;92.40;19.30;99710.00;;;;343013;28;90505;-92
2021/08/19 00:36:30;;;;;;;;;;;19.10;92.40;19.30;99713.00;;;;340647;28;83464;-92
2021/08/19 00:36:42;;;;;;;;;;;19.10;92.40;19.20;99713.00;;;;340304;28;91053;-93
2021/08/19 00:36:54;;;;;;;;;;;19.10;92.60;19.30;99704.00;;;;340673;28;82567;-93
2021/08/19 00:37:06;;;;;;;;;;;19.10;92.40;19.30;99712.00;;;;340398;28;91701;-92
2021/08/19 00:37:17;;;;;;;;;;;19.10;92.40;19.20;99708.00;;;;339139;28;83490;-92
2021/08/19 00:37:31;;;;;;;;;;;19.10;92.30;19.30;99705.00;;;;340949;28;91695;-92
2021/08/19 00:37:43;;;;;;;;;;;19.10;92.50;19.30;99708.00;;;;342041;28;82637;-93
2021/08/19 00:37:55;;;;;;;;;;;19.10;92.40;19.30;99705.00;;;;343148;28;92552;-93
2021/08/19 00:38:07;;;;;;;;;;;19.10;92.40;19.30;99707.00;;;;343370;28;84507;-93
2021/08/19 00:38:19;;;;;;;;;;;19.10;92.40;19.30;99709.00;;;;342317;28;91754;-93
2021/08/19 00:38:31;;;;;;;;;;;19.10;92.40;19.30;99704.00;;;;341961;28;84119;-93
2021/08/19 00:38:45;;;;;;;;;;;19.10;92.40;19.30;99709.00;;;;341591;28;90323;-93
2021/08/19 00:38:59;;;;;;;;;;;19.10;92.40;19.40;99698.00;;;;344753;28;84389;-93
2021/08/19 00:39:11;;;;;;;;;;;19.20;92.50;19.30;99704.00;;;;342709;28;91610;-93
2021/08/19 00:39:23;;;;;;;;;;;19.10;92.40;19.30;99706.00;;;;342358;28;82637;-93
2021/08/19 00:39:38;;;;;;;;;;;19.10;92.50;19.30;99704.00;;;;344342;28;89774;-93
2021/08/19 00:39:49;;;;;;;;;;;19.20;92.50;19.30;99709.00;;;;344848;28;83424;-92
2021/08/19 00:40:03;;;;;;;;;;;19.10;92.50;19.30;99702.00;;;;342785;28;93401;-93
2021/08/19 00:40:15;;;;;;;;;;;19.10;92.40;19.30;99701.00;;;;343432;28;83427;-94
2021/08/19 00:40:28;;;;;;;;;;;19.10;92.40;19.30;99701.00;;;;341670;28;91989;-93
2021/08/19 00:40:40;;;;;;;;;;;19.10;92.50;19.30;99709.00;;;;342035;28;83445;-93
2021/08/19 00:40:52;;;;;;;;;;;19.10;92.50;19.30;99697.00;;;;344304;28;90635;-93
2021/08/19 00:41:04;;;;;;;;;;;19.10;92.50;19.20;99697.00;;;;346092;28;83457;-93
2021/08/19 00:41:16;;;;;;;;;;;19.10;92.60;19.20;99704.00;;;;342996;28;90928;-92
2021/08/19 00:41:28;;;;;;;;;;;19.10;92.60;19.20;99709.00;;;;343322;28;82514;-93
2021/08/19 00:41:40;;;;;;;;;;;19.10;92.60;19.30;99705.00;;;;345877;28;90435;-93
2021/08/19 00:41:52;;;;;;;;;;;19.10;92.60;19.10;99707.00;;;;343336;28;83425;-92
2021/08/19 00:42:05;;;;;;;;;;;19.10;92.60;19.10;99701.00;;;;342764;28;91778;-93
2021/08/19 00:42:17;;;;;;;;;;;19.10;92.50;19.10;99700.00;;;;343485;28;83315;-93
2021/08/19 00:42:30;;;;;;;;;;;19.10;92.60;19.00;99707.00;;;;344314;28;90580;-92
2021/08/19 00:42:42;;;;;;;;;;;19.10;92.60;19.00;99696.00;;;;343277;28;83621;-93
2021/08/19 00:42:54;;;;;;;;;;;19.10;92.60;19.10;99703.00;;;;345794;28;90661;-93
2021/08/19 00:43:06;;;;;;;;;;;19.00;92.60;19.10;99703.00;;;;343644;28;82552;-92
2021/08/19 00:43:19;;;;;;;;;;;19.00;92.70;19.10;99706.00;;;;342940;28;91144;-93
2021/08/19 00:43:33;;;;;;;;;;;19.00;92.70;19.10;99703.00;;;;344755;28;83399;-92
2021/08/19 00:43:45;;;;;;;;;;;19.00;92.70;19.10;99707.00;;;;343057;28;90659;-93
2021/08/19 00:43:59;;;;;;;;;;;19.00;92.80;19.20;99709.00;;;;344725;28;83454;-92
2021/08/19 00:44:11;;;;;;;;;;;19.00;92.80;19.20;99699.00;;;;342950;28;91803;-92
2021/08/19 00:44:22;;;;;;;;;;;19.00;92.80;19.20;99705.00;;;;344922;28;83360;-93
2021/08/19 00:44:34;;;;;;;;;;;19.00;92.80;19.20;99699.00;;;;343082;28;91345;-93
2021/08/19 00:44:47;;;;;;;;;;;19.00;92.80;19.10;99703.00;;;;344752;28;83494;-93
2021/08/19 00:44:58;;;;;;;;;;;19.00;92.90;19.10;99695.00;;;;341590;28;91109;-93
2021/08/19 00:45:11;;;;;;;;;;;19.00;92.90;19.20;99695.00;;;;342125;28;83527;-93
2021/08/19 00:45:22;;;;;;;;;;;19.00;92.90;19.20;99699.00;;;;344118;28;90048;-93
2021/08/19 00:45:35;;;;;;;;;;;19.00;92.90;19.20;99703.00;;;;344644;28;83619;-92
2021/08/19 00:45:47;;;;;;;;;;;19.00;93.00;19.10;99694.00;;;;342982;28;91098;-93
2021/08/19 00:46:00;;;;;;;;;;;19.00;92.90;19.10;99704.00;;;;343190;28;83483;-92
2021/08/19 00:46:31;;;;;;;;;;;19.00;92.90;19.00;99700.00;;;;341444;28;89545;-93
2021/08/19 00:46:44;;;;;;;;;;;19.00;92.90;19.00;99710.00;;;;340488;28;83613;-93
2021/08/19 00:46:56;;;;;;;;;;;19.00;93.00;19.10;99700.00;;;;344117;28;89675;-92
2021/08/19 00:47:09;;;;;;;;;;;19.00;93.00;19.10;99700.00;;;;344443;28;82567;-92
2021/08/19 00:47:21;;;;;;;;;;;19.00;93.00;19.10;99696.00;;;;342978;28;88109;-93
2021/08/19 00:47:34;;;;;;;;;;;19.00;93.00;19.10;99700.00;;;;344516;28;83426;-92
2021/08/19 00:47:46;;;;;;;;;;;19.00;93.10;19.20;99692.00;;;;344031;28;89157;-93
2021/08/19 00:47:58;;;;;;;;;;;19.00;93.40;19.20;99696.00;;;;345186;28;82551;-92
2021/08/19 00:48:12;;;;;;;;;;;19.00;93.20;19.20;99697.00;;;;342935;28;90210;-93
2021/08/19 00:48:24;;;;;;;;;;;19.00;93.20;19.20;99698.00;;;;345839;28;83696;-93
2021/08/19 00:48:36;;;;;;;;;;;19.00;93.20;19.30;99692.00;;;;344418;28;91844;-93
2021/08/19 00:48:48;;;;;;;;;;;19.00;93.30;19.20;99697.00;;;;343618;28;82568;-92
2021/08/19 00:49:06;;;;;;;;;;;19.00;93.30;19.30;99698.00;;;;342288;28;90876;-93
2021/08/19 00:49:18;;;;;;;;;;;19.00;93.40;19.20;99696.00;;;;343587;28;82531;-93
2021/08/19 00:49:30;;;;;;;;;;;19.00;93.30;19.20;99691.00;;;;343557;28;88522;-93
2021/08/19 00:49:43;;;;;;;;;;;19.00;93.30;19.10;99698.00;;;;344821;28;83651;-92
2021/08/19 00:49:56;;;;;;;;;;;19.00;93.60;19.20;99697.00;;;;343881;28;89214;-93
2021/08/19 00:50:11;;;;;;;;;;;19.00;93.40;19.10;99700.00;;;;343749;28;83477;-92
2021/08/19 00:50:24;;;;;;;;;;;19.00;93.30;19.10;99695.00;;;;343064;28;89310;-93
2021/08/19 00:50:37;;;;;;;;;;;19.00;93.40;19.10;99700.00;;;;341111;28;82470;-93
2021/08/19 00:50:49;;;;;;;;;;;19.00;93.50;19.10;99694.00;;;;343304;28;90669;-94
2021/08/19 00:51:03;;;;;;;;;;;19.00;93.50;19.10;99696.00;;;;344970;28;83538;-92
2021/08/19 00:51:15;;;;;;;;;;;19.00;93.50;19.10;99689.00;;;;342937;28;89976;-93
2021/08/19 00:51:38;;;;;;;;;;;19.00;93.40;19.10;99697.00;;;;343626;28;82567;-93
2021/08/19 00:51:53;;;;;;;;;;;19.00;93.50;19.10;99686.00;;;;341790;28;90202;-93
2021/08/19 00:52:06;;;;;;;;;;;19.00;93.50;19.20;99690.00;;;;343293;28;82583;-92
2021/08/19 00:52:18;;;;;;;;;;;19.00;93.50;19.20;99688.00;;;;343362;28;90554;-93
2021/08/19 00:52:30;;;;;;;;;;;19.00;93.50;19.10;99694.00;;;;342187;28;83567;-93
2021/08/19 00:52:42;;;;;;;;;;;19.00;93.50;19.00;99688.00;;;;344751;28;90807;-92
2021/08/19 00:52:55;;;;;;;;;;;19.00;93.70;19.00;99685.00;;;;342074;28;83476;-93
2021/08/19 00:53:07;;;;;;;;;;;19.00;93.70;19.10;99693.00;;;;342774;28;91539;-94
2021/08/19 00:53:19;;;;;;;;;;;19.00;94.00;19.10;99692.00;;;;343654;28;82549;-91
2021/08/19 00:53:31;;;;;;;;;;;19.00;93.70;19.10;99694.00;;;;345825;28;86743;-93
2021/08/19 00:53:43;;;;;;;;;;;19.00;93.70;19.20;99695.00;;;;346798;28;82549;-93
2021/08/19 00:53:55;;;;;;;;;;;19.00;93.70;19.20;99695.00;;;;344775;28;90615;-92
2021/08/19 00:54:11;;;;;;;;;;;19.00;93.60;19.20;99686.00;;;;345695;28;82420;-92
2021/08/19 00:54:26;;;;;;;;;;;19.00;93.70;19.20;99694.00;;;;344808;28;90950;-93
2021/08/19 00:54:40;;;;;;;;;;;19.00;93.70;19.30;99685.00;;;;346667;28;82581;-92
2021/08/19 00:54:52;;;;;;;;;;;19.00;93.70;19.20;99687.00;;;;344971;28;90621;-93
2021/08/19 00:55:05;;;;;;;;;;;19.00;93.80;19.20;99693.00;;;;345362;28;82339;-93
2021/08/19 00:55:17;;;;;;;;;;;19.00;93.70;19.30;99687.00;;;;346061;28;90484;-93
2021/08/19 00:55:29;;;;;;;;;;;19.00;93.80;19.20;99690.00;;;;346568;28;82381;-93
2021/08/19 00:55:41;;;;;;;;;;;19.00;93.90;19.10;99693.00;;;;344646;28;90509;-92
2021/08/19 00:55:53;;;;;;;;;;;19.00;93.90;19.10;99691.00;;;;346583;28;82584;-92
2021/08/19 00:56:05;;;;;;;;;;;19.00;93.90;19.10;99691.00;;;;346202;28;88693;-93
2021/08/19 00:56:17;;;;;;;;;;;19.00;93.90;19.10;99690.00;;;;345244;28;82376;-94
2021/08/19 00:56:29;;;;;;;;;;;19.00;93.90;19.00;99697.00;;;;343517;28;90625;-92
2021/08/19 00:56:41;;;;;;;;;;;19.00;93.90;19.00;99698.00;;;;342471;28;82559;-92
2021/08/19 00:56:58;;;;;;;;;;;19.00;93.80;19.00;99695.00;;;;344933;28;89951;-92
2021/08/19 00:57:10;;;;;;;;;;;19.00;93.80;19.00;99693.00;;;;343937;28;82443;-93
2021/08/19 00:57:22;;;;;;;;;;;19.00;93.90;19.00;99695.00;;;;341890;28;92917;-93
2021/08/19 00:57:34;;;;;;;;;;;19.00;93.90;19.10;99691.00;;;;346706;28;82496;-93
2021/08/19 00:57:46;;;;;;;;;;;19.00;93.90;19.10;99689.00;;;;344850;28;89530;-92
2021/08/19 00:57:58;;;;;;;;;;;19.00;93.90;19.10;99694.00;;;;343898;28;83063;-92
2021/08/19 00:58:12;;;;;;;;;;;19.00;93.90;19.10;99693.00;;;;347163;28;90550;-93
2021/08/19 00:58:23;;;;;;;;;;;19.00;93.90;19.20;99688.00;;;;347867;28;82525;-94
2021/08/19 00:58:40;;;;;;;;;;;19.00;94.00;19.10;99694.00;;;;343733;28;88160;-93
2021/08/19 00:58:52;;;;;;;;;;;19.00;94.00;19.20;99690.00;;;;343920;28;82645;-93
2021/08/19 00:59:14;;;;;;;;;;;19.00;94.00;19.20;99684.00;;;;344527;28;90683;-92
2021/08/19 00:59:27;;;;;;;;;;;19.00;93.90;19.20;99684.00;;;;345287;28;82625;-93
2021/08/19 00:59:39;;;;;;;;;;;19.00;93.90;19.10;99698.00;;;;344816;28;91059;-93
2021/08/19 00:59:52;;;;;;;;;;;19.00;94.00;19.10;99699.00;;;;345013;28;82471;-93
2021/08/19 01:00:09;;;;;;;;;;;19.00;94.00;18.90;99697.00;;;;343217;28;91758;-93
2021/08/19 01:00:22;;;;;;;;;;;19.00;94.00;18.90;99694.00;;;;343722;28;82518;-93
2021/08/19 01:00:34;;;;;;;;;;;19.00;94.00;19.00;99698.00;;;;341550;28;90417;-93
2021/08/19 01:00:46;;;;;;;;;;;19.00;94.00;18.90;99693.00;;;;345085;28;82604;-92
2021/08/19 01:00:58;;;;;;;;;;;19.00;94.00;18.80;99698.00;;;;347197;28;90481;-92
2021/08/19 01:01:10;;;;;;;;;;;19.00;94.00;18.80;99681.00;;;;344977;28;82486;-91
2021/08/19 01:01:24;;;;;;;;;;;19.00;94.10;18.90;99692.00;;;;344546;28;89763;-92
2021/08/19 01:01:37;;;;;;;;;;;19.00;94.10;19.10;99697.00;;;;343952;28;82575;-92